Scantic, Connecticut
Current Conditions -  °F | °C
As of 9:51 PM on Wednesday 22 Oct 2014 (Local Time) from KBDL Reporting Station
Light Rain Light Rain  
Wind Chill: 50°   Ceiling: 1800
Heat Index: 50°   Visibility: 8mi
Dew Point: 45°   Wind: 26mph
Humidity: 83%   Direction: 360°N
Pressure: 29.76"   Gusts: 43mph
Location:  41.9062°N, 72.5958°W
Report Text: KBDL 230151Z 36023G37KT 8SM -RA BR BKN018 OVC024 10/07 A2976 RMK AO2 PK WND 36037/0149 PRESFR SLP077 P0007 T01000072
Loading
Personal Weather Stations






























Interactive Weather Map
Tropical Storm Tracking
New forecast layout! Learn more

10-Day Weather Forecast

Advertisements
Track Severe Weather on mobile